Richland, Mississippi
Current Conditions -  °F | °C
As of 7:54 AM on Saturday 22 Nov 2014 (Local Time) from KJAN Reporting Station
Broken Clouds Broken Clouds  
Wind Chill: 12°   Ceiling: 11000
Heat Index: 12°   Visibility: 10mi
Dew Point:   Wind: 9mph
Humidity: 64%   Direction: 130°SE
Pressure: 30.28"   Gusts: NA
Location:  32.2326°N, 90.165°W
Report Text: KJAN 221354Z 13008KT 10SM BKN110 12/06 A3028 RMK AO2 SLP250 T01220056
Loading
Personal Weather Stations






























Interactive Weather Map New forecast layout! Learn more

10-Day Weather Forecast

Advertisements
Track Severe Weather on mobile